sensor_id;sensor_type;location;lat;lon;timestamp;pressure;altitude;pressure_sealevel;temperature;humidity
40946;BME280;55635;50.264;11.918;2023-08-21T00:02:24;96189.84;;;25.09;77.41
40946;BME280;55635;50.264;11.918;2023-08-21T00:05:08;96193.88;;;25.01;78.52
40946;BME280;55635;50.264;11.918;2023-08-21T00:07:49;96192.75;;;24.92;79.65
40946;BME280;55635;50.264;11.918;2023-08-21T00:10:31;96189.72;;;24.88;79.43
40946;BME280;55635;50.264;11.918;2023-08-21T00:13:13;96193.28;;;24.94;77.60
40946;BME280;55635;50.264;11.918;2023-08-21T00:15:54;96195.16;;;24.88;77.75
40946;BME280;55635;50.264;11.918;2023-08-21T00:18:36;96194.31;;;24.83;77.27
40946;BME280;55635;50.264;11.918;2023-08-21T00:21:16;96198.94;;;24.87;77.52
40946;BME280;55635;50.264;11.918;2023-08-21T00:23:57;96193.50;;;24.87;77.86
40946;BME280;55635;50.264;11.918;2023-08-21T00:26:38;96189.84;;;24.77;78.16
40946;BME280;55635;50.264;11.918;2023-08-21T00:29:19;96188.78;;;24.78;77.91
40946;BME280;55635;50.264;11.918;2023-08-21T00:32:01;96191.47;;;24.73;78.51
40946;BME280;55635;50.264;11.918;2023-08-21T00:34:42;96186.47;;;24.60;78.31
40946;BME280;55635;50.264;11.918;2023-08-21T00:37:23;96189.19;;;24.60;78.46
40946;BME280;55635;50.264;11.918;2023-08-21T00:40:04;96189.72;;;24.57;78.68
40946;BME280;55635;50.264;11.918;2023-08-21T00:42:47;96185.34;;;24.56;79.33
40946;BME280;55635;50.264;11.918;2023-08-21T00:45:28;96185.44;;;24.66;77.86
40946;BME280;55635;50.264;11.918;2023-08-21T00:48:09;96194.66;;;24.65;79.63
40946;BME280;55635;50.264;11.918;2023-08-21T00:50:52;96195.53;;;24.70;77.54
40946;BME280;55635;50.264;11.918;2023-08-21T00:53:34;96196.31;;;24.71;77.75
40946;BME280;55635;50.264;11.918;2023-08-21T00:56:15;96195.25;;;24.72;77.80
40946;BME280;55635;50.264;11.918;2023-08-21T00:58:56;96188.63;;;24.58;79.28
40946;BME280;55635;50.264;11.918;2023-08-21T01:01:38;96184.50;;;24.50;80.09
40946;BME280;55635;50.264;11.918;2023-08-21T01:04:19;96190.19;;;24.49;79.58
40946;BME280;55635;50.264;11.918;2023-08-21T01:07:00;96202.13;;;24.53;77.52
40946;BME280;55635;50.264;11.918;2023-08-21T01:09:49;96196.72;;;24.53;79.89
40946;BME280;55635;50.264;11.918;2023-08-21T01:12:44;96186.34;;;24.45;79.53
40946;BME280;55635;50.264;11.918;2023-08-21T01:15:27;96207.25;;;24.17;80.12
40946;BME280;55635;50.264;11.918;2023-08-21T01:18:09;96196.84;;;24.09;81.80
40946;BME280;55635;50.264;11.918;2023-08-21T01:20:51;96191.84;;;24.23;79.26
40946;BME280;55635;50.264;11.918;2023-08-21T01:23:36;96197.91;;;24.08;81.44
40946;BME280;55635;50.264;11.918;2023-08-21T01:26:18;96201.00;;;23.95;81.04
40946;BME280;55635;50.264;11.918;2023-08-21T01:28:59;96192.91;;;23.73;83.49
40946;BME280;55635;50.264;11.918;2023-08-21T01:31:41;96192.00;;;23.63;84.43
40946;BME280;55635;50.264;11.918;2023-08-21T01:34:26;96197.56;;;23.78;82.83
40946;BME280;55635;50.264;11.918;2023-08-21T01:37:09;96194.41;;;23.86;81.67
40946;BME280;55635;50.264;11.918;2023-08-21T01:39:51;96188.94;;;23.81;82.82
40946;BME280;55635;50.264;11.918;2023-08-21T01:42:32;96188.69;;;23.82;82.38
40946;BME280;55635;50.264;11.918;2023-08-21T01:45:12;96195.00;;;23.88;81.77
40946;BME280;55635;50.264;11.918;2023-08-21T01:47:53;96182.69;;;23.80;82.81
40946;BME280;55635;50.264;11.918;2023-08-21T01:50:34;96193.59;;;23.64;83.98
40946;BME280;55635;50.264;11.918;2023-08-21T01:53:15;96195.69;;;23.78;82.42
40946;BME280;55635;50.264;11.918;2023-08-21T01:55:56;96185.16;;;23.82;81.33
40946;BME280;55635;50.264;11.918;2023-08-21T01:58:37;96185.69;;;23.79;81.47
40946;BME280;55635;50.264;11.918;2023-08-21T02:01:18;96186.56;;;23.84;79.24
40946;BME280;55635;50.264;11.918;2023-08-21T02:03:59;96185.38;;;23.75;79.35
40946;BME280;55635;50.264;11.918;2023-08-21T02:06:40;96190.69;;;23.70;79.88
40946;BME280;55635;50.264;11.918;2023-08-21T02:09:21;96174.72;;;23.69;80.23
40946;BME280;55635;50.264;11.918;2023-08-21T02:12:03;96188.00;;;23.70;80.79
40946;BME280;55635;50.264;11.918;2023-08-21T02:14:44;96192.34;;;23.50;83.62
40946;BME280;55635;50.264;11.918;2023-08-21T02:17:28;96192.91;;;23.52;83.25
40946;BME280;55635;50.264;11.918;2023-08-21T02:20:10;96201.53;;;23.49;85.17
40946;BME280;55635;50.264;11.918;2023-08-21T02:22:51;96193.03;;;23.40;86.13
40946;BME280;55635;50.264;11.918;2023-08-21T02:25:32;96195.25;;;23.65;82.97
40946;BME280;55635;50.264;11.918;2023-08-21T02:28:13;96195.88;;;23.72;81.92
40946;BME280;55635;50.264;11.918;2023-08-21T02:30:54;96203.19;;;23.71;82.59
40946;BME280;55635;50.264;11.918;2023-08-21T02:33:35;96205.25;;;23.64;82.53
40946;BME280;55635;50.264;11.918;2023-08-21T02:36:16;96205.44;;;23.58;82.91
40946;BME280;55635;50.264;11.918;2023-08-21T02:38:57;96214.16;;;23.60;83.48
40946;BME280;55635;50.264;11.918;2023-08-21T02:41:38;96214.06;;;23.55;83.80
40946;BME280;55635;50.264;11.918;2023-08-21T02:44:19;96210.34;;;23.61;82.77
40946;BME280;55635;50.264;11.918;2023-08-21T02:47:01;96205.22;;;23.59;83.31
40946;BME280;55635;50.264;11.918;2023-08-21T02:49:42;96210.13;;;23.62;81.73
40946;BME280;55635;50.264;11.918;2023-08-21T02:52:23;96210.63;;;23.59;83.51
40946;BME280;55635;50.264;11.918;2023-08-21T02:55:05;96213.34;;;23.59;81.91
40946;BME280;55635;50.264;11.918;2023-08-21T02:57:46;96210.84;;;23.58;82.25
40946;BME280;55635;50.264;11.918;2023-08-21T03:00:27;96210.75;;;23.48;82.06
40946;BME280;55635;50.264;11.918;2023-08-21T03:03:08;96208.59;;;23.50;81.42
40946;BME280;55635;50.264;11.918;2023-08-21T03:05:49;96207.78;;;23.49;82.15
40946;BME280;55635;50.264;11.918;2023-08-21T03:08:30;96206.41;;;23.47;82.15
40946;BME280;55635;50.264;11.918;2023-08-21T03:11:11;96191.06;;;23.36;82.13
40946;BME280;55635;50.264;11.918;2023-08-21T03:13:51;96213.81;;;23.18;82.99
40946;BME280;55635;50.264;11.918;2023-08-21T03:16:33;96209.16;;;23.13;83.47
40946;BME280;55635;50.264;11.918;2023-08-21T03:19:14;96211.31;;;23.11;83.16
40946;BME280;55635;50.264;11.918;2023-08-21T03:21:55;96209.50;;;23.17;82.26
40946;BME280;55635;50.264;11.918;2023-08-21T03:24:36;96210.31;;;23.17;81.83
40946;BME280;55635;50.264;11.918;2023-08-21T03:27:18;96210.56;;;23.16;82.08
40946;BME280;55635;50.264;11.918;2023-08-21T03:29:59;96206.97;;;23.10;82.55
40946;BME280;55635;50.264;11.918;2023-08-21T03:32:41;96207.19;;;23.09;81.23
40946;BME280;55635;50.264;11.918;2023-08-21T03:35:22;96211.31;;;23.11;81.44
40946;BME280;55635;50.264;11.918;2023-08-21T03:38:03;96198.34;;;22.97;81.99
40946;BME280;55635;50.264;11.918;2023-08-21T03:40:51;96209.00;;;23.03;83.05
40946;BME280;55635;50.264;11.918;2023-08-21T03:43:32;96187.75;;;22.90;83.35
40946;BME280;55635;50.264;11.918;2023-08-21T03:46:13;96211.09;;;22.96;83.74
40946;BME280;55635;50.264;11.918;2023-08-21T03:48:54;96210.66;;;22.88;84.00
40946;BME280;55635;50.264;11.918;2023-08-21T03:51:35;96209.38;;;22.90;81.64
40946;BME280;55635;50.264;11.918;2023-08-21T03:54:16;96209.06;;;22.87;80.65
40946;BME280;55635;50.264;11.918;2023-08-21T03:56:57;96202.31;;;22.72;81.17
40946;BME280;55635;50.264;11.918;2023-08-21T03:59:38;96212.81;;;22.69;81.60
40946;BME280;55635;50.264;11.918;2023-08-21T04:02:20;96214.25;;;22.60;82.60
40946;BME280;55635;50.264;11.918;2023-08-21T04:05:01;96215.34;;;22.59;84.93
40946;BME280;55635;50.264;11.918;2023-08-21T04:07:42;96218.59;;;22.61;85.25
40946;BME280;55635;50.264;11.918;2023-08-21T04:10:23;96219.97;;;22.75;85.43
40946;BME280;55635;50.264;11.918;2023-08-21T04:13:04;96208.53;;;22.56;85.90
40946;BME280;55635;50.264;11.918;2023-08-21T04:15:45;96208.06;;;22.59;84.71
40946;BME280;55635;50.264;11.918;2023-08-21T04:18:26;96219.16;;;22.63;83.92
40946;BME280;55635;50.264;11.918;2023-08-21T04:21:09;96223.06;;;22.67;82.33
40946;BME280;55635;50.264;11.918;2023-08-21T04:23:50;96226.22;;;22.64;82.41
40946;BME280;55635;50.264;11.918;2023-08-21T04:26:31;96226.63;;;22.56;84.42
40946;BME280;55635;50.264;11.918;2023-08-21T04:29:12;96212.53;;;22.54;83.81
40946;BME280;55635;50.264;11.918;2023-08-21T04:31:53;96225.41;;;22.47;86.01
40946;BME280;55635;50.264;11.918;2023-08-21T04:34:34;96221.72;;;22.53;86.17
40946;BME280;55635;50.264;11.918;2023-08-21T04:37:15;96219.88;;;22.42;86.40
40946;BME280;55635;50.264;11.918;2023-08-21T04:39:56;96226.28;;;22.36;86.40
40946;BME280;55635;50.264;11.918;2023-08-21T04:42:37;96238.91;;;22.47;84.22
40946;BME280;55635;50.264;11.918;2023-08-21T04:45:18;96232.13;;;22.44;84.98
40946;BME280;55635;50.264;11.918;2023-08-21T04:47:59;96231.31;;;22.44;84.54
40946;BME280;55635;50.264;11.918;2023-08-21T04:50:40;96234.25;;;22.59;84.60
40946;BME280;55635;50.264;11.918;2023-08-21T04:53:21;96231.72;;;22.52;85.03
40946;BME280;55635;50.264;11.918;2023-08-21T04:56:02;96236.56;;;22.67;83.36
40946;BME280;55635;50.264;11.918;2023-08-21T04:58:46;96235.53;;;22.68;83.48
40946;BME280;55635;50.264;11.918;2023-08-21T05:01:29;96233.94;;;22.72;84.76
40946;BME280;55635;50.264;11.918;2023-08-21T05:04:11;96235.94;;;22.76;84.13
40946;BME280;55635;50.264;11.918;2023-08-21T05:06:52;96244.28;;;22.92;82.20
40946;BME280;55635;50.264;11.918;2023-08-21T05:09:33;96233.78;;;22.95;81.81
40946;BME280;55635;50.264;11.918;2023-08-21T05:12:14;96235.00;;;23.04;82.07
40946;BME280;55635;50.264;11.918;2023-08-21T05:14:55;96246.06;;;23.19;81.43
40946;BME280;55635;50.264;11.918;2023-08-21T05:17:37;96244.06;;;23.15;82.51
40946;BME280;55635;50.264;11.918;2023-08-21T05:20:19;96239.75;;;23.14;82.82
40946;BME280;55635;50.264;11.918;2023-08-21T05:22:59;96231.13;;;23.17;83.31
40946;BME280;55635;50.264;11.918;2023-08-21T05:25:41;96256.03;;;23.36;82.94
40946;BME280;55635;50.264;11.918;2023-08-21T05:28:22;96260.63;;;23.35;83.75
40946;BME280;55635;50.264;11.918;2023-08-21T05:31:03;96237.38;;;23.17;85.12
40946;BME280;55635;50.264;11.918;2023-08-21T05:33:56;96247.53;;;22.94;85.91
40946;BME280;55635;50.264;11.918;2023-08-21T05:36:37;96252.63;;;23.07;85.63
40946;BME280;55635;50.264;11.918;2023-08-21T05:39:18;96249.91;;;23.23;84.18
40946;BME280;55635;50.264;11.918;2023-08-21T05:42:00;96249.47;;;23.31;83.65
40946;BME280;55635;50.264;11.918;2023-08-21T05:44:41;96248.66;;;23.48;83.48
40946;BME280;55635;50.264;11.918;2023-08-21T05:47:23;96256.38;;;23.61;82.69
40946;BME280;55635;50.264;11.918;2023-08-21T05:50:06;96249.22;;;23.71;82.17
40946;BME280;55635;50.264;11.918;2023-08-21T05:52:47;96255.59;;;23.82;82.32
40946;BME280;55635;50.264;11.918;2023-08-21T05:55:28;96251.81;;;23.83;83.67
40946;BME280;55635;50.264;11.918;2023-08-21T05:58:09;96262.06;;;24.03;82.92
40946;BME280;55635;50.264;11.918;2023-08-21T06:00:50;96255.97;;;24.12;82.37
40946;BME280;55635;50.264;11.918;2023-08-21T06:03:31;96266.41;;;24.25;81.79
40946;BME280;55635;50.264;11.918;2023-08-21T06:06:28;96264.97;;;24.45;80.67
40946;BME280;55635;50.264;11.918;2023-08-21T06:09:09;96262.94;;;24.57;80.69
40946;BME280;55635;50.264;11.918;2023-08-21T06:11:50;96258.09;;;24.90;80.11
40946;BME280;55635;50.264;11.918;2023-08-21T06:14:31;96257.25;;;25.64;76.57
40946;BME280;55635;50.264;11.918;2023-08-21T06:17:15;96249.97;;;26.46;72.50
40946;BME280;55635;50.264;11.918;2023-08-21T06:19:55;96247.03;;;26.98;70.46
40946;BME280;55635;50.264;11.918;2023-08-21T06:22:36;96251.63;;;27.28;70.26
40946;BME280;55635;50.264;11.918;2023-08-21T06:25:17;96255.25;;;28.13;67.29
40946;BME280;55635;50.264;11.918;2023-08-21T06:28:00;96242.25;;;28.88;65.70
40946;BME280;55635;50.264;11.918;2023-08-21T06:30:41;96250.44;;;29.50;60.52
40946;BME280;55635;50.264;11.918;2023-08-21T06:33:22;96246.25;;;29.87;60.00
40946;BME280;55635;50.264;11.918;2023-08-21T06:36:03;96245.38;;;30.52;57.27
40946;BME280;55635;50.264;11.918;2023-08-21T06:38:44;96252.56;;;31.04;56.18
40946;BME280;55635;50.264;11.918;2023-08-21T06:41:25;96255.41;;;31.45;55.09
40946;BME280;55635;50.264;11.918;2023-08-21T06:44:06;96247.97;;;31.64;53.22
40946;BME280;55635;50.264;11.918;2023-08-21T06:46:49;96255.28;;;32.37;52.43
40946;BME280;55635;50.264;11.918;2023-08-21T06:49:30;96251.03;;;32.80;51.52
40946;BME280;55635;50.264;11.918;2023-08-21T06:52:11;96247.06;;;33.31;48.01
40946;BME280;55635;50.264;11.918;2023-08-21T06:54:52;96243.03;;;33.99;47.28
40946;BME280;55635;50.264;11.918;2023-08-21T06:57:33;96236.69;;;34.29;46.74
40946;BME280;55635;50.264;11.918;2023-08-21T07:00:14;96253.78;;;34.65;45.14
40946;BME280;55635;50.264;11.918;2023-08-21T07:02:55;96242.91;;;35.03;44.73
40946;BME280;55635;50.264;11.918;2023-08-21T07:05:37;96222.09;;;35.57;44.07
40946;BME280;55635;50.264;11.918;2023-08-21T07:08:18;96248.59;;;35.96;42.20
40946;BME280;55635;50.264;11.918;2023-08-21T07:11:02;96242.47;;;35.10;43.94
40946;BME280;55635;50.264;11.918;2023-08-21T07:13:45;96237.38;;;35.46;43.36
40946;BME280;55635;50.264;11.918;2023-08-21T07:16:25;96237.34;;;35.63;42.67
40946;BME280;55635;50.264;11.918;2023-08-21T07:19:07;96232.44;;;35.77;41.64
40946;BME280;55635;50.264;11.918;2023-08-21T07:21:47;96242.03;;;36.09;42.24
40946;BME280;55635;50.264;11.918;2023-08-21T07:24:28;96241.09;;;36.64;41.34
40946;BME280;55635;50.264;11.918;2023-08-21T07:27:09;96253.19;;;36.50;40.04
40946;BME280;55635;50.264;11.918;2023-08-21T07:29:50;96243.72;;;37.22;40.95
40946;BME280;55635;50.264;11.918;2023-08-21T07:32:31;96235.41;;;38.24;38.95
40946;BME280;55635;50.264;11.918;2023-08-21T07:35:12;96234.97;;;38.34;38.78
40946;BME280;55635;50.264;11.918;2023-08-21T07:37:53;96239.25;;;38.56;38.06
40946;BME280;55635;50.264;11.918;2023-08-21T07:40:34;96230.69;;;38.49;37.19
40946;BME280;55635;50.264;11.918;2023-08-21T07:43:14;96237.63;;;38.43;37.07
40946;BME280;55635;50.264;11.918;2023-08-21T07:45:55;96243.00;;;38.76;37.30
40946;BME280;55635;50.264;11.918;2023-08-21T07:48:36;96242.88;;;38.84;36.10
40946;BME280;55635;50.264;11.918;2023-08-21T07:51:17;96243.25;;;39.23;35.85
40946;BME280;55635;50.264;11.918;2023-08-21T07:53:58;96252.94;;;39.29;36.14
40946;BME280;55635;50.264;11.918;2023-08-21T07:56:39;96249.34;;;39.56;36.56
40946;BME280;55635;50.264;11.918;2023-08-21T07:59:21;96255.19;;;39.23;36.40
40946;BME280;55635;50.264;11.918;2023-08-21T08:02:03;96262.03;;;39.41;35.59
40946;BME280;55635;50.264;11.918;2023-08-21T08:04:46;96257.31;;;39.57;36.03
40946;BME280;55635;50.264;11.918;2023-08-21T08:07:27;96249.38;;;39.16;36.56
40946;BME280;55635;50.264;11.918;2023-08-21T08:10:08;96245.41;;;39.57;35.59
40946;BME280;55635;50.264;11.918;2023-08-21T08:12:49;96255.59;;;39.96;35.40
40946;BME280;55635;50.264;11.918;2023-08-21T08:15:30;96258.84;;;40.30;34.62
40946;BME280;55635;50.264;11.918;2023-08-21T08:18:12;96252.03;;;40.27;34.90
40946;BME280;55635;50.264;11.918;2023-08-21T08:20:53;96249.56;;;39.94;35.43
40946;BME280;55635;50.264;11.918;2023-08-21T08:23:34;96255.53;;;39.65;35.49
40946;BME280;55635;50.264;11.918;2023-08-21T08:26:15;96264.66;;;39.93;35.30
40946;BME280;55635;50.264;11.918;2023-08-21T08:28:57;96251.09;;;39.48;35.67
40946;BME280;55635;50.264;11.918;2023-08-21T08:31:38;96253.88;;;39.76;36.09
40946;BME280;55635;50.264;11.918;2023-08-21T08:34:19;96247.34;;;39.68;35.09
40946;BME280;55635;50.264;11.918;2023-08-21T08:37:01;96249.63;;;40.10;34.15
40946;BME280;55635;50.264;11.918;2023-08-21T08:39:41;96249.69;;;39.54;34.73
40946;BME280;55635;50.264;11.918;2023-08-21T08:42:22;96240.28;;;39.59;35.57
40946;BME280;55635;50.264;11.918;2023-08-21T08:45:04;96252.09;;;39.84;35.53
40946;BME280;55635;50.264;11.918;2023-08-21T08:47:45;96246.72;;;39.75;35.42
40946;BME280;55635;50.264;11.918;2023-08-21T08:50:30;96241.34;;;39.54;35.84
40946;BME280;55635;50.264;11.918;2023-08-21T08:53:12;96239.66;;;39.50;34.27
40946;BME280;55635;50.264;11.918;2023-08-21T08:55:54;96251.91;;;39.21;34.58
40946;BME280;55635;50.264;11.918;2023-08-21T08:58:35;96252.78;;;39.37;36.31
40946;BME280;55635;50.264;11.918;2023-08-21T09:01:16;96254.19;;;39.59;35.15
40946;BME280;55635;50.264;11.918;2023-08-21T09:03:57;96253.16;;;39.79;35.60
40946;BME280;55635;50.264;11.918;2023-08-21T09:06:38;96249.03;;;39.73;35.68
40946;BME280;55635;50.264;11.918;2023-08-21T09:09:19;96252.78;;;39.37;34.72
40946;BME280;55635;50.264;11.918;2023-08-21T09:12:00;96256.88;;;39.28;35.58
40946;BME280;55635;50.264;11.918;2023-08-21T09:14:42;96238.53;;;38.10;36.81
40946;BME280;55635;50.264;11.918;2023-08-21T09:17:23;96254.59;;;38.29;37.47
40946;BME280;55635;50.264;11.918;2023-08-21T09:20:06;96244.66;;;38.28;36.51
40946;BME280;55635;50.264;11.918;2023-08-21T09:22:55;96254.13;;;38.27;37.41
40946;BME280;55635;50.264;11.918;2023-08-21T09:25:39;96242.91;;;38.60;36.64
40946;BME280;55635;50.264;11.918;2023-08-21T09:28:22;96248.38;;;38.44;36.94
40946;BME280;55635;50.264;11.918;2023-08-21T09:31:03;96237.88;;;38.50;36.99
40946;BME280;55635;50.264;11.918;2023-08-21T09:33:44;96249.50;;;38.80;36.69
40946;BME280;55635;50.264;11.918;2023-08-21T09:36:35;96237.41;;;38.36;37.18
40946;BME280;55635;50.264;11.918;2023-08-21T09:39:20;96251.94;;;38.21;38.62
40946;BME280;55635;50.264;11.918;2023-08-21T09:42:05;96249.16;;;38.33;36.82
40946;BME280;55635;50.264;11.918;2023-08-21T09:44:49;96242.06;;;38.72;36.33
40946;BME280;55635;50.264;11.918;2023-08-21T09:47:32;96248.09;;;38.86;36.24
40946;BME280;55635;50.264;11.918;2023-08-21T09:50:14;96247.84;;;38.91;36.39
40946;BME280;55635;50.264;11.918;2023-08-21T09:52:57;96238.59;;;39.27;35.73
40946;BME280;55635;50.264;11.918;2023-08-21T09:55:39;96243.91;;;39.32;35.15
40946;BME280;55635;50.264;11.918;2023-08-21T09:58:21;96243.03;;;39.15;35.25
40946;BME280;55635;50.264;11.918;2023-08-21T10:01:06;96234.84;;;38.55;34.98
40946;BME280;55635;50.264;11.918;2023-08-21T10:03:57;96237.50;;;39.03;34.89
40946;BME280;55635;50.264;11.918;2023-08-21T10:06:41;96229.31;;;39.35;35.35
40946;BME280;55635;50.264;11.918;2023-08-21T10:09:24;96228.81;;;39.45;36.27
40946;BME280;55635;50.264;11.918;2023-08-21T10:12:06;96230.59;;;38.97;34.76
40946;BME280;55635;50.264;11.918;2023-08-21T10:14:49;96227.00;;;38.08;35.52
40946;BME280;55635;50.264;11.918;2023-08-21T10:17:31;96231.75;;;37.51;36.40
40946;BME280;55635;50.264;11.918;2023-08-21T10:20:12;96222.16;;;36.74;36.77
40946;BME280;55635;50.264;11.918;2023-08-21T10:22:55;96214.72;;;37.73;36.57
40946;BME280;55635;50.264;11.918;2023-08-21T10:25:41;96216.72;;;38.45;36.87
40946;BME280;55635;50.264;11.918;2023-08-21T10:28:23;96219.06;;;38.95;34.15
40946;BME280;55635;50.264;11.918;2023-08-21T10:34:14;96219.13;;;39.11;34.64
40946;BME280;55635;50.264;11.918;2023-08-21T10:37:11;96218.81;;;39.28;35.70
40946;BME280;55635;50.264;11.918;2023-08-21T10:39:56;96205.41;;;39.46;34.41
40946;BME280;55635;50.264;11.918;2023-08-21T10:42:39;96217.03;;;39.79;33.06
40946;BME280;55635;50.264;11.918;2023-08-21T10:45:20;96206.09;;;39.27;33.20
40946;BME280;55635;50.264;11.918;2023-08-21T10:48:01;96215.31;;;39.03;33.42
40946;BME280;55635;50.264;11.918;2023-08-21T10:50:42;96208.03;;;39.39;32.55
40946;BME280;55635;50.264;11.918;2023-08-21T10:53:24;96210.25;;;38.93;32.83
40946;BME280;55635;50.264;11.918;2023-08-21T10:56:06;96202.84;;;38.97;32.33
40946;BME280;55635;50.264;11.918;2023-08-21T10:58:47;96196.13;;;39.54;32.37
40946;BME280;55635;50.264;11.918;2023-08-21T11:01:44;96203.47;;;39.62;33.34
40946;BME280;55635;50.264;11.918;2023-08-21T11:04:25;96208.72;;;39.36;33.59
40946;BME280;55635;50.264;11.918;2023-08-21T11:07:07;96199.22;;;40.11;33.40
40946;BME280;55635;50.264;11.918;2023-08-21T11:09:49;96193.28;;;40.29;31.67
40946;BME280;55635;50.264;11.918;2023-08-21T11:12:30;96201.28;;;40.14;32.78
40946;BME280;55635;50.264;11.918;2023-08-21T11:15:11;96198.81;;;40.44;32.90
40946;BME280;55635;50.264;11.918;2023-08-21T11:18:02;96187.31;;;40.46;31.25
40946;BME280;55635;50.264;11.918;2023-08-21T11:20:43;96190.34;;;39.90;31.60
40946;BME280;55635;50.264;11.918;2023-08-21T11:23:33;96183.63;;;38.64;34.38
40946;BME280;55635;50.264;11.918;2023-08-21T11:26:15;96187.34;;;38.96;32.78
40946;BME280;55635;50.264;11.918;2023-08-21T11:28:56;96195.59;;;38.29;33.01
40946;BME280;55635;50.264;11.918;2023-08-21T11:31:39;96187.78;;;39.10;33.65
40946;BME280;55635;50.264;11.918;2023-08-21T11:34:21;96182.63;;;39.25;32.73
40946;BME280;55635;50.264;11.918;2023-08-21T11:37:04;96177.97;;;39.72;32.85
40946;BME280;55635;50.264;11.918;2023-08-21T11:39:53;96180.56;;;39.81;31.46
40946;BME280;55635;50.264;11.918;2023-08-21T11:42:35;96185.56;;;40.22;32.30
40946;BME280;55635;50.264;11.918;2023-08-21T11:45:16;96172.56;;;39.95;31.54
40946;BME280;55635;50.264;11.918;2023-08-21T11:47:57;96171.56;;;39.56;30.84
40946;BME280;55635;50.264;11.918;2023-08-21T11:50:39;96180.38;;;38.62;32.10
40946;BME280;55635;50.264;11.918;2023-08-21T11:53:38;96179.91;;;37.96;33.34
40946;BME280;55635;50.264;11.918;2023-08-21T11:56:19;96184.59;;;38.44;35.18
40946;BME280;55635;50.264;11.918;2023-08-21T11:59:00;96172.56;;;39.20;33.84
40946;BME280;55635;50.264;11.918;2023-08-21T12:01:41;96169.06;;;39.07;32.98
40946;BME280;55635;50.264;11.918;2023-08-21T12:04:22;96177.72;;;39.34;34.57
40946;BME280;55635;50.264;11.918;2023-08-21T12:07:03;96177.06;;;39.68;33.57
40946;BME280;55635;50.264;11.918;2023-08-21T12:09:47;96174.53;;;40.26;31.67
40946;BME280;55635;50.264;11.918;2023-08-21T12:12:29;96183.56;;;40.38;31.95
40946;BME280;55635;50.264;11.918;2023-08-21T12:15:10;96170.44;;;39.72;32.06
40946;BME280;55635;50.264;11.918;2023-08-21T12:17:51;96174.00;;;39.42;33.83
40946;BME280;55635;50.264;11.918;2023-08-21T12:20:32;96183.69;;;38.92;35.29
40946;BME280;55635;50.264;11.918;2023-08-21T12:23:14;96163.91;;;38.94;33.86
40946;BME280;55635;50.264;11.918;2023-08-21T12:25:55;96168.25;;;39.35;32.94
40946;BME280;55635;50.264;11.918;2023-08-21T12:28:36;96163.16;;;37.93;32.67
40946;BME280;55635;50.264;11.918;2023-08-21T12:31:17;96165.91;;;37.81;34.12
40946;BME280;55635;50.264;11.918;2023-08-21T12:33:58;96166.81;;;37.60;35.01
40946;BME280;55635;50.264;11.918;2023-08-21T12:36:40;96177.50;;;37.50;35.49
40946;BME280;55635;50.264;11.918;2023-08-21T12:39:21;96172.16;;;37.33;36.29
40946;BME280;55635;50.264;11.918;2023-08-21T12:42:02;96165.25;;;37.39;36.60
40946;BME280;55635;50.264;11.918;2023-08-21T12:44:44;96159.81;;;37.30;36.20
40946;BME280;55635;50.264;11.918;2023-08-21T12:47:24;96172.22;;;36.91;36.15
40946;BME280;55635;50.264;11.918;2023-08-21T12:50:06;96158.19;;;36.34;36.61
40946;BME280;55635;50.264;11.918;2023-08-21T12:52:47;96160.97;;;36.14;37.69
40946;BME280;55635;50.264;11.918;2023-08-21T12:55:29;96168.66;;;36.70;37.90
40946;BME280;55635;50.264;11.918;2023-08-21T12:58:11;96165.50;;;36.80;36.76
40946;BME280;55635;50.264;11.918;2023-08-21T13:00:54;96163.50;;;37.79;34.89
40946;BME280;55635;50.264;11.918;2023-08-21T13:03:35;96170.50;;;38.49;34.37
40946;BME280;55635;50.264;11.918;2023-08-21T13:06:16;96163.28;;;39.00;33.11
40946;BME280;55635;50.264;11.918;2023-08-21T13:08:57;96163.34;;;39.16;33.13
40946;BME280;55635;50.264;11.918;2023-08-21T13:11:38;96156.69;;;39.48;32.94
40946;BME280;55635;50.264;11.918;2023-08-21T13:14:19;96155.00;;;39.16;33.93
40946;BME280;55635;50.264;11.918;2023-08-21T13:17:00;96151.94;;;39.49;32.48
40946;BME280;55635;50.264;11.918;2023-08-21T13:19:40;96156.91;;;40.18;31.80
40946;BME280;55635;50.264;11.918;2023-08-21T13:22:21;96157.41;;;40.08;32.07
40946;BME280;55635;50.264;11.918;2023-08-21T13:25:03;96159.91;;;40.29;31.42
40946;BME280;55635;50.264;11.918;2023-08-21T13:27:44;96149.34;;;40.18;31.53
40946;BME280;55635;50.264;11.918;2023-08-21T13:30:24;96160.44;;;40.69;31.42
40946;BME280;55635;50.264;11.918;2023-08-21T13:33:06;96155.03;;;40.76;30.61
40946;BME280;55635;50.264;11.918;2023-08-21T13:35:47;96149.56;;;40.45;30.17
40946;BME280;55635;50.264;11.918;2023-08-21T13:38:28;96152.97;;;40.38;31.29
40946;BME280;55635;50.264;11.918;2023-08-21T13:41:09;96138.34;;;40.41;30.31
40946;BME280;55635;50.264;11.918;2023-08-21T13:43:50;96140.13;;;40.14;29.69
40946;BME280;55635;50.264;11.918;2023-08-21T13:46:33;96130.09;;;39.32;31.09
40946;BME280;55635;50.264;11.918;2023-08-21T13:49:17;96135.91;;;38.71;31.45
40946;BME280;55635;50.264;11.918;2023-08-21T13:51:58;96118.19;;;39.03;32.10
40946;BME280;55635;50.264;11.918;2023-08-21T13:54:42;96121.47;;;38.93;32.82
40946;BME280;55635;50.264;11.918;2023-08-21T13:57:23;96118.81;;;39.87;32.89
40946;BME280;55635;50.264;11.918;2023-08-21T14:00:05;96119.44;;;40.12;31.36
40946;BME280;55635;50.264;11.918;2023-08-21T14:02:52;96109.66;;;40.02;30.05
40946;BME280;55635;50.264;11.918;2023-08-21T14:05:33;96105.88;;;40.45;31.42
40946;BME280;55635;50.264;11.918;2023-08-21T14:08:14;96112.50;;;40.06;30.72
40946;BME280;55635;50.264;11.918;2023-08-21T14:10:55;96103.34;;;40.05;31.04